Agua Fria, New Mexico
Current Conditions -  °F | °C
As of 10:53 AM on Wednesday 28 Jan 2015 (Local Time) from KSAF Reporting Station
Clear Clear  
Wind Chill: 53°   Ceiling: Unl
Heat Index: 53°   Visibility: 10mi
Dew Point: 30°   Wind: 14mph
Humidity: 41%   Direction: 340°NNW
Pressure: 30.26"   Gusts: NA
Location:  35.7017°N, 105.921°W
Report Text: KSAF 281753Z 34012KT 10SM CLR 12/M01 A3026 RMK AO2 SLP206 T01171011 10117 20011 51005
Loading
Personal Weather Stations






























Interactive Weather Map New forecast layout! Learn more

10-Day Weather Forecast

Advertisements
Track Severe Weather on mobile